createdAt,value
2019-03-29T00:00:22.869Z,30.92
2019-03-29T00:05:25.370Z,33.05
2019-03-29T00:10:27.171Z,34.25
2019-03-29T00:15:29.230Z,34.03
2019-03-29T00:20:30.771Z,34.55
2019-03-29T00:25:33.063Z,35.85
2019-03-29T00:30:34.701Z,38.40
2019-03-29T00:35:36.019Z,36.28
2019-03-29T00:40:37.511Z,32.20
2019-03-29T00:45:38.832Z,35.98
2019-03-29T00:50:40.318Z,35.52
2019-03-29T00:55:41.730Z,32.38
2019-03-29T01:00:43.077Z,33.00
2019-03-29T01:05:44.706Z,29.55
2019-03-29T01:10:48.904Z,32.17
2019-03-29T01:15:50.615Z,35.40
2019-03-29T01:20:52.184Z,34.10
2019-03-29T01:25:53.850Z,31.97
2019-03-29T01:30:55.314Z,30.52
2019-03-29T01:35:56.777Z,31.57
2019-03-29T01:41:01.009Z,30.25
2019-03-29T01:46:02.654Z,30.52
2019-03-29T01:51:04.335Z,33.10
2019-03-29T01:56:05.999Z,31.77
2019-03-29T02:01:07.408Z,33.20
2019-03-29T02:06:08.726Z,30.95
2019-03-29T02:11:10.260Z,31.95
2019-03-29T02:16:11.803Z,30.10
2019-03-29T02:21:13.506Z,28.70
2019-03-29T02:26:14.971Z,31.85
2019-03-29T02:31:16.485Z,31.40
2019-03-29T02:36:18.026Z,31.12
2019-03-29T02:41:21.336Z,29.52
2019-03-29T02:46:22.806Z,27.35
2019-03-29T02:51:24.164Z,29.02
2019-03-29T02:56:25.656Z,29.18
2019-03-29T03:01:27.227Z,29.15
2019-03-29T03:06:28.772Z,28.65
2019-03-29T03:11:30.643Z,27.13
2019-03-29T03:16:32.147Z,28.05
2019-03-29T03:21:33.466Z,28.15
2019-03-29T03:26:35.044Z,30.43
2019-03-29T03:31:36.735Z,29.57
2019-03-29T03:36:39.019Z,28.90
2019-03-29T03:41:42.385Z,26.10
2019-03-29T03:46:43.798Z,25.95
2019-03-29T03:51:48.645Z,27.00
2019-03-29T03:56:52.193Z,27.37
2019-03-29T04:01:53.683Z,26.42
2019-03-29T04:06:55.376Z,28.50
2019-03-29T04:11:56.936Z,27.90
2019-03-29T04:17:00.025Z,27.10
2019-03-29T04:22:01.345Z,26.62
2019-03-29T04:27:03.951Z,27.90
2019-03-29T04:32:05.734Z,28.40
2019-03-29T04:37:07.172Z,26.68
2019-03-29T04:42:08.785Z,27.32
2019-03-29T04:47:10.345Z,25.65
2019-03-29T04:52:11.989Z,27.48
2019-03-29T04:57:13.519Z,25.77
2019-03-29T05:02:14.823Z,25.32
2019-03-29T05:07:16.448Z,26.60
2019-03-29T05:12:17.763Z,27.15
2019-03-29T05:17:21.546Z,26.15
2019-03-29T05:22:22.951Z,26.70
2019-03-29T05:27:25.890Z,28.00
2019-03-29T05:32:27.316Z,27.87
2019-03-29T05:37:29.084Z,27.45
2019-03-29T05:42:30.507Z,27.15
2019-03-29T05:47:33.604Z,25.20
2019-03-29T05:52:35.151Z,24.10
2019-03-29T05:57:36.620Z,27.70
2019-03-29T06:02:38.150Z,29.92
2019-03-29T06:07:39.812Z,30.75
2019-03-29T06:12:43.250Z,31.15
2019-03-29T06:17:49.018Z,30.55
2019-03-29T06:22:49.519Z,30.32
2019-03-29T06:27:50.884Z,34.18
2019-03-29T06:32:52.216Z,35.90
2019-03-29T06:37:54.369Z,33.42
2019-03-29T06:42:57.676Z,37.00
2019-03-29T06:47:59.323Z,40.15
2019-03-29T06:53:01.031Z,40.33
2019-03-29T06:58:02.808Z,39.95
2019-03-29T07:03:04.715Z,41.02
2019-03-29T07:08:06.265Z,45.15
2019-03-29T07:13:07.707Z,43.60
2019-03-29T07:18:17.188Z,46.00
2019-03-29T07:23:18.943Z,47.78
2019-03-29T07:28:20.433Z,52.62
2019-03-29T07:33:21.987Z,48.95
2019-03-29T07:38:23.957Z,46.83
2019-03-29T07:43:25.568Z,47.30
2019-03-29T07:48:26.985Z,45.70
2019-03-29T07:53:28.686Z,45.67
2019-03-29T07:58:30.131Z,42.80
2019-03-29T08:03:32.031Z,44.45
2019-03-29T08:08:51.974Z,40.43
2019-03-29T08:13:53.365Z,38.13
2019-03-29T08:18:54.883Z,38.38
2019-03-29T08:23:56.350Z,39.75
2019-03-29T08:28:57.734Z,40.20
2019-03-29T08:34:01.930Z,39.73
2019-03-29T08:39:06.007Z,40.90
2019-03-29T08:44:07.361Z,44.38
2019-03-29T08:49:08.863Z,42.40
2019-03-29T08:54:10.406Z,44.08
2019-03-29T08:59:11.975Z,42.73
2019-03-29T09:04:13.512Z,42.62
2019-03-29T09:09:15.564Z,42.88
2019-03-29T09:14:17.197Z,39.70
2019-03-29T09:19:18.491Z,39.05
2019-03-29T09:24:22.396Z,35.48
2019-03-29T09:29:37.056Z,35.28
2019-03-29T09:34:53.797Z,38.90
2019-03-29T09:39:56.139Z,37.95
2019-03-29T09:44:57.451Z,40.75
2019-03-29T09:49:59.091Z,36.68
2019-03-29T09:55:00.602Z,35.40
2019-03-29T10:00:18.137Z,35.17
2019-03-29T10:05:10.500Z,36.60
2019-03-29T10:10:12.345Z,32.15
2019-03-29T10:15:13.859Z,33.33
2019-03-29T10:20:31.580Z,32.13
2019-03-29T10:25:41.851Z,32.28
2019-03-29T10:31:01.135Z,32.48
2019-03-29T10:36:23.692Z,30.62
2019-03-29T10:41:38.090Z,28.87
2019-03-29T10:46:39.688Z,27.37
2019-03-29T10:51:41.892Z,27.85
2019-03-29T10:56:43.256Z,27.02
2019-03-29T11:01:44.827Z,24.95
2019-03-29T11:06:46.527Z,25.95
2019-03-29T11:11:48.019Z,26.00
2019-03-29T11:16:49.389Z,24.92
2019-03-29T11:21:51.240Z,23.70
2019-03-29T11:26:52.668Z,22.05
2019-03-29T11:31:57.474Z,21.40
2019-03-29T11:36:59.290Z,20.68
2019-03-29T11:42:03.314Z,22.42
2019-03-29T11:47:04.753Z,20.77
2019-03-29T11:52:06.251Z,19.57
2019-03-29T11:57:07.679Z,16.32
2019-03-29T12:02:11.370Z,19.95
2019-03-29T12:07:13.368Z,19.00
2019-03-29T12:12:14.845Z,16.25
2019-03-29T12:17:16.191Z,17.35
2019-03-29T12:22:18.032Z,18.35
2019-03-29T12:27:19.455Z,18.00
2019-03-29T12:32:21.099Z,16.90
2019-03-29T12:37:22.528Z,18.80
2019-03-29T12:42:24.066Z,18.48
2019-03-29T12:47:25.780Z,19.27
2019-03-29T12:52:27.419Z,18.27
2019-03-29T12:57:29.075Z,18.15
2019-03-29T13:02:30.475Z,18.52
2019-03-29T13:07:32.199Z,17.77
2019-03-29T13:12:33.869Z,16.62
2019-03-29T13:17:35.461Z,15.83
2019-03-29T13:22:38.796Z,14.68
2019-03-29T13:27:40.272Z,16.42
2019-03-29T13:32:41.779Z,15.95
2019-03-29T13:37:43.298Z,16.80
2019-03-29T13:42:45.511Z,18.25
2019-03-29T13:47:48.445Z,17.73
2019-03-29T13:52:49.783Z,17.52
2019-03-29T13:57:51.753Z,17.48
2019-03-29T14:02:53.172Z,19.35
2019-03-29T14:07:54.696Z,18.75
2019-03-29T14:12:56.361Z,20.50
2019-03-29T14:17:57.874Z,19.65
2019-03-29T14:23:02.781Z,20.52
2019-03-29T14:28:04.257Z,18.75
2019-03-29T14:33:05.750Z,17.73
2019-03-29T14:38:07.123Z,17.50
2019-03-29T14:43:08.551Z,17.67
2019-03-29T14:48:10.145Z,17.77
2019-03-29T14:53:11.771Z,16.93
2019-03-29T14:58:13.156Z,16.65
2019-03-29T15:03:14.710Z,18.15
2019-03-29T15:08:16.251Z,16.87
2019-03-29T15:13:18.114Z,17.12
2019-03-29T15:18:19.524Z,17.40
2019-03-29T15:23:21.077Z,19.23
2019-03-29T15:28:22.722Z,18.85
2019-03-29T15:33:24.211Z,18.55
2019-03-29T15:38:25.515Z,19.17
2019-03-29T15:43:26.869Z,19.45
2019-03-29T15:48:28.533Z,19.62
2019-03-29T15:53:30.012Z,20.40
2019-03-29T15:58:31.516Z,20.05
2019-03-29T16:03:33.003Z,19.98
2019-03-29T16:08:34.467Z,18.80
2019-03-29T16:13:35.863Z,20.70
2019-03-29T16:18:37.257Z,18.90
2019-03-29T16:23:38.571Z,16.40
2019-03-29T16:28:39.900Z,14.10
2019-03-29T16:33:41.247Z,15.53
2019-03-29T16:38:42.779Z,13.32
2019-03-29T16:43:44.165Z,13.25
2019-03-29T16:48:46.072Z,13.58
2019-03-29T16:53:47.409Z,14.10
2019-03-29T16:58:48.733Z,15.63
2019-03-29T17:03:50.168Z,15.72
2019-03-29T17:08:51.612Z,17.30
2019-03-29T17:13:53.307Z,16.45
2019-03-29T17:18:54.774Z,16.60
2019-03-29T17:23:56.177Z,17.25
2019-03-29T17:28:57.608Z,15.60
2019-03-29T17:33:59.230Z,14.90
2019-03-29T17:39:00.521Z,15.45
2019-03-29T17:44:05.831Z,17.20
2019-03-29T17:49:07.408Z,16.07
2019-03-29T17:54:08.880Z,15.23
2019-03-29T17:59:10.929Z,15.10
2019-03-29T18:04:12.494Z,13.88
2019-03-29T18:09:14.166Z,13.60
2019-03-29T18:14:15.644Z,15.18
2019-03-29T18:19:17.397Z,16.52
2019-03-29T18:24:19.292Z,18.05
2019-03-29T18:29:21.006Z,19.20
2019-03-29T18:34:24.840Z,19.90
2019-03-29T18:39:26.850Z,19.15
2019-03-29T18:44:28.318Z,20.08
2019-03-29T18:49:49.640Z,20.37
2019-03-29T18:54:51.162Z,26.42
2019-03-29T18:59:52.593Z,26.33
2019-03-29T19:04:54.099Z,26.77
2019-03-29T19:09:55.848Z,27.93
2019-03-29T19:14:57.383Z,24.77
2019-03-29T19:19:59.117Z,23.70
2019-03-29T19:25:00.631Z,41.95
2019-03-29T19:30:06.829Z,40.58
2019-03-29T19:35:09.136Z,28.47
2019-03-29T19:40:11.137Z,28.50
2019-03-29T19:45:14.588Z,37.63
2019-03-29T19:50:16.872Z,48.87
2019-03-29T19:55:18.390Z,47.55
2019-03-29T20:00:28.857Z,50.17
2019-03-29T20:05:30.360Z,47.33
2019-03-29T20:10:31.939Z,43.08
2019-03-29T20:15:36.182Z,39.20
2019-03-29T20:20:37.870Z,35.03
2019-03-29T20:25:39.331Z,37.30
2019-03-29T20:30:41.373Z,34.40
2019-03-29T20:35:42.887Z,29.12
2019-03-29T20:40:45.160Z,25.50
2019-03-29T20:45:46.678Z,22.00
2019-03-29T20:50:48.067Z,22.22
2019-03-29T20:55:49.682Z,22.07
2019-03-29T21:00:51.222Z,22.67
2019-03-29T21:05:52.769Z,22.07
2019-03-29T21:10:56.238Z,22.52
2019-03-29T21:15:58.527Z,24.02
2019-03-29T21:20:59.862Z,22.87
2019-03-29T21:26:03.930Z,24.80
2019-03-29T21:31:05.343Z,25.25
2019-03-29T21:36:07.205Z,25.20
2019-03-29T21:41:08.692Z,24.60
2019-03-29T21:46:10.186Z,24.18
2019-03-29T21:51:12.688Z,24.10
2019-03-29T21:56:16.042Z,28.45
2019-03-29T22:01:19.412Z,32.93
2019-03-29T22:06:21.026Z,28.75
2019-03-29T22:11:25.088Z,27.05
2019-03-29T22:16:26.919Z,27.30
2019-03-29T22:21:28.842Z,27.22
2019-03-29T22:26:30.672Z,27.22
2019-03-29T22:31:32.563Z,25.15
2019-03-29T22:36:34.074Z,25.60
2019-03-29T22:41:35.955Z,24.00
2019-03-29T22:46:39.446Z,25.08
2019-03-29T22:51:41.118Z,23.85
2019-03-29T22:56:42.918Z,24.52
2019-03-29T23:01:47.678Z,23.87
2019-03-29T23:06:49.106Z,23.67
2019-03-29T23:11:50.543Z,23.22
2019-03-29T23:16:52.069Z,22.58
2019-03-29T23:21:53.427Z,21.97
2019-03-29T23:26:55.003Z,23.32
2019-03-29T23:31:56.480Z,21.68
2019-03-29T23:37:16.616Z,21.70
2019-03-29T23:42:17.926Z,23.25
2019-03-29T23:47:20.625Z,22.90
2019-03-29T23:52:22.157Z,21.37
2019-03-29T23:57:23.639Z,19.70
